Time;durP1;ratioP1;P1;durP2;ratioP2;P2;SDS_P1;SDS_P2;PMS_P1;PMS_P2;Temp;Humidity;BMP_temperature;BMP_pressure;BME280_temperature;BME280_humidity;BME280_pressure;Samples;Min_cycle;Max_cycle;Signal;HPM_P1;HPM_P2
2022/10/28 00:01:19;;;;;;;18.52;5.57;;;15.80;99.90;;;;;;5047809;28;20037;-73
2022/10/28 00:03:50;;;;;;;14.90;5.43;;;15.80;99.90;;;;;;5045233;28;20049;-71
2022/10/28 00:06:22;;;;;;;15.55;5.72;;;15.80;99.90;;;;;;5033457;28;20038;-71
2022/10/28 00:08:48;;;;;;;14.65;6.15;;;15.80;99.90;;;;;;5031543;28;20037;-71
2022/10/28 00:11:33;;;;;;;13.65;4.88;;;15.70;99.90;;;;;;5045739;28;20041;-71
2022/10/28 00:14:02;;;;;;;15.93;5.07;;;15.70;99.90;;;;;;5085783;28;20060;-72
2022/10/28 00:16:32;;;;;;;17.60;5.88;;;15.60;99.90;;;;;;5041766;28;20064;-71
2022/10/28 00:18:59;;;;;;;12.93;5.43;;;15.60;99.90;;;;;;5032602;28;20475;-71
2022/10/28 00:21:29;;;;;;;13.52;4.53;;;15.50;99.90;;;;;;5032552;28;20093;-75
2022/10/28 00:23:55;;;;;;;13.10;5.05;;;15.50;99.90;;;;;;5031775;28;20164;-71
2022/10/28 00:26:24;;;;;;;18.08;5.65;;;15.50;99.90;;;;;;5043206;28;20053;-70
2022/10/28 00:28:58;;;;;;;14.05;5.30;;;15.40;99.90;;;;;;5043416;28;20068;-70
2022/10/28 00:31:26;;;;;;;11.68;5.05;;;15.30;99.90;;;;;;5034669;28;20090;-75
2022/10/28 00:33:52;;;;;;;12.88;5.25;;;15.30;99.90;;;;;;5032695;28;20125;-70
2022/10/28 00:36:21;;;;;;;15.90;6.18;;;15.20;99.90;;;;;;5031483;28;20483;-71
2022/10/28 00:38:52;;;;;;;14.35;5.45;;;15.30;99.90;;;;;;5038238;28;20097;-71
2022/10/28 00:41:24;;;;;;;17.10;6.53;;;15.20;99.90;;;;;;5031626;28;20057;-70
2022/10/28 00:43:52;;;;;;;19.08;6.88;;;15.20;99.90;;;;;;5051013;28;20092;-70
2022/10/28 00:46:44;;;;;;;12.68;5.10;;;15.20;99.90;;;;;;5050299;28;20561;-70
2022/10/28 00:49:33;;;;;;;13.63;5.45;;;15.20;99.90;;;;;;5042857;28;20504;-74
2022/10/28 00:52:03;;;;;;;11.50;6.05;;;15.10;99.90;;;;;;5031562;28;20396;-70
2022/10/28 00:54:29;;;;;;;10.95;5.25;;;15.00;99.90;;;;;;5029971;28;20053;-72
2022/10/28 00:56:57;;;;;;;14.77;5.53;;;15.00;99.90;;;;;;5082738;28;20123;-70
2022/10/28 00:59:31;;;;;;;11.60;5.10;;;15.00;99.90;;;;;;5041419;28;20124;-68
2022/10/28 01:01:57;;;;;;;14.63;5.93;;;15.00;99.90;;;;;;5032589;28;20033;-69
2022/10/28 01:04:23;;;;;;;13.73;5.63;;;15.00;99.90;;;;;;5035110;28;20044;-68
2022/10/28 01:06:50;;;;;;;12.65;5.45;;;15.00;99.90;;;;;;5035795;28;20116;-68
2022/10/28 01:09:16;;;;;;;17.25;6.07;;;15.00;99.90;;;;;;5035886;28;20049;-68
2022/10/28 01:11:44;;;;;;;10.98;5.43;;;15.00;99.90;;;;;;5031061;28;20047;-68
2022/10/28 01:14:43;;;;;;;13.45;5.03;;;14.90;99.90;;;;;;5032224;28;20099;-68
2022/10/28 01:17:26;;;;;;;11.93;5.70;;;14.90;99.90;;;;;;5032174;28;20092;-68
2022/10/28 01:20:25;;;;;;;18.92;5.28;;;14.90;99.90;;;;;;5031397;28;20053;-68
2022/10/28 01:23:13;;;;;;;11.30;4.93;;;14.90;99.90;;;;;;5038098;28;20079;-68
2022/10/28 01:25:48;;;;;;;13.70;5.40;;;14.80;99.90;;;;;;5030200;28;21298;-68
2022/10/28 01:28:44;;;;;;;13.68;5.80;;;14.80;99.90;;;;;;5037373;28;20071;-68
2022/10/28 01:31:18;;;;;;;12.95;5.88;;;14.80;99.90;;;;;;5031464;28;20375;-69
2022/10/28 01:34:16;;;;;;;13.23;5.57;;;14.80;99.90;;;;;;5041772;28;20080;-68
2022/10/28 01:36:57;;;;;;;11.77;5.35;;;14.80;99.90;;;;;;5033435;28;20077;-68
2022/10/28 01:39:31;;;;;;;16.42;5.60;;;14.70;99.90;;;;;;5032885;28;20045;-70
2022/10/28 01:42:10;;;;;;;15.98;5.65;;;14.70;99.90;;;;;;5032025;28;20049;-68
2022/10/28 01:45:07;;;;;;;14.43;6.18;;;14.70;99.90;;;;;;5063446;28;20061;-70
2022/10/28 01:47:36;;;;;;;14.32;5.85;;;14.70;99.90;;;;;;5063433;28;20585;-72
2022/10/28 01:50:07;;;;;;;15.50;5.88;;;14.70;99.90;;;;;;5031505;28;20045;-68
2022/10/28 01:52:33;;;;;;;17.33;6.10;;;14.60;99.90;;;;;;5063286;28;20395;-72
2022/10/28 01:55:09;;;;;;;14.23;5.18;;;14.60;99.90;;;;;;5042043;28;20044;-68
2022/10/28 01:57:37;;;;;;;12.88;5.47;;;14.60;99.90;;;;;;5049721;28;20065;-71
2022/10/28 02:00:04;;;;;;;14.15;5.53;;;14.60;99.90;;;;;;5038167;28;20045;-68
2022/10/28 02:02:36;;;;;;;13.45;5.15;;;14.60;99.90;;;;;;5051084;28;20137;-72
2022/10/28 02:05:40;;;;;;;16.40;5.70;;;14.50;99.90;;;;;;5083859;28;20068;-69
2022/10/28 02:08:18;;;;;;;14.52;5.70;;;14.50;99.90;;;;;;5050395;28;20045;-68
2022/10/28 02:10:59;;;;;;;14.93;6.22;;;14.40;99.90;;;;;;5034538;28;20081;-68
2022/10/28 02:13:47;;;;;;;17.95;6.45;;;14.40;99.90;;;;;;5031319;28;20147;-68
2022/10/28 02:16:27;;;;;;;15.68;6.57;;;14.40;99.90;;;;;;5031527;28;20107;-69
2022/10/28 02:19:01;;;;;;;13.90;6.28;;;14.40;99.90;;;;;;5035271;28;20086;-68
2022/10/28 02:21:43;;;;;;;14.63;6.20;;;14.30;99.90;;;;;;5050922;28;20095;-68
2022/10/28 02:24:13;;;;;;;15.88;6.40;;;14.30;99.90;;;;;;5045683;28;20089;-68
2022/10/28 02:26:45;;;;;;;17.75;7.18;;;14.30;99.90;;;;;;5048334;28;20120;-68
2022/10/28 02:29:29;;;;;;;17.90;6.05;;;14.30;99.90;;;;;;5050112;28;20057;-68
2022/10/28 02:32:00;;;;;;;12.00;5.95;;;14.30;99.90;;;;;;5050414;28;20119;-71
2022/10/28 02:34:40;;;;;;;15.82;7.00;;;14.30;99.90;;;;;;5050629;28;20553;-70
2022/10/28 02:37:12;;;;;;;18.27;5.88;;;14.20;99.90;;;;;;5050601;28;20084;-71
2022/10/28 02:39:42;;;;;;;17.48;6.63;;;14.20;99.90;;;;;;5045602;28;20489;-71
2022/10/28 02:42:19;;;;;;;15.77;6.22;;;14.20;99.90;;;;;;5049726;28;20060;-68
2022/10/28 02:44:51;;;;;;;12.48;6.50;;;14.20;99.90;;;;;;5050332;28;20114;-68
2022/10/28 02:47:22;;;;;;;15.32;7.00;;;14.20;99.90;;;;;;5031509;28;20060;-68
2022/10/28 02:49:57;;;;;;;12.35;5.78;;;14.20;99.90;;;;;;5029809;28;20049;-70
2022/10/28 02:52:27;;;;;;;16.52;6.15;;;14.20;99.90;;;;;;5035548;28;20049;-68
2022/10/28 02:54:56;;;;;;;13.38;6.38;;;14.20;99.90;;;;;;5028983;28;20050;-68
2022/10/28 02:57:32;;;;;;;14.38;5.80;;;14.20;99.90;;;;;;5030527;28;20057;-70
2022/10/28 03:00:13;;;;;;;19.25;7.25;;;14.20;99.90;;;;;;5030057;28;20041;-69
2022/10/28 03:02:39;;;;;;;13.98;6.43;;;14.20;99.90;;;;;;5029839;28;20095;-72
2022/10/28 03:05:05;;;;;;;17.20;6.97;;;14.20;99.90;;;;;;5030296;28;20132;-68
2022/10/28 03:07:31;;;;;;;14.23;6.47;;;14.20;99.90;;;;;;5033247;28;20433;-68
2022/10/28 03:09:57;;;;;;;14.77;6.32;;;14.20;99.90;;;;;;5033847;28;20057;-68
2022/10/28 03:12:22;;;;;;;15.68;6.20;;;14.20;99.90;;;;;;5062647;28;20064;-68
2022/10/28 03:14:48;;;;;;;17.75;6.78;;;14.20;99.90;;;;;;5051365;28;20475;-69
2022/10/28 03:17:14;;;;;;;14.60;5.90;;;14.10;99.90;;;;;;5050381;28;20056;-68
2022/10/28 03:19:39;;;;;;;14.95;5.80;;;14.10;99.90;;;;;;5049321;28;20053;-72
2022/10/28 03:22:05;;;;;;;14.23;6.28;;;14.10;99.90;;;;;;5041609;28;20072;-70
2022/10/28 03:24:31;;;;;;;19.73;7.10;;;14.00;99.90;;;;;;5035103;28;20132;-68
2022/10/28 03:26:56;;;;;;;12.32;5.95;;;14.00;99.90;;;;;;5051397;28;20045;-68
2022/10/28 03:29:22;;;;;;;15.85;6.88;;;14.00;99.90;;;;;;5035649;28;20161;-68
2022/10/28 03:31:48;;;;;;;16.45;6.25;;;13.90;99.90;;;;;;5036166;28;20049;-69
2022/10/28 03:34:13;;;;;;;21.13;6.40;;;14.00;99.90;;;;;;5049349;28;20045;-67
2022/10/28 03:36:39;;;;;;;17.08;6.50;;;13.90;99.90;;;;;;5088809;28;20067;-72
2022/10/28 03:39:05;;;;;;;16.73;6.03;;;13.90;99.90;;;;;;5049451;28;20096;-68
2022/10/28 03:41:30;;;;;;;17.40;5.90;;;13.90;99.90;;;;;;5051607;28;20430;-70
2022/10/28 03:43:56;;;;;;;17.58;6.55;;;13.90;99.90;;;;;;5055835;28;20116;-67
2022/10/28 03:46:21;;;;;;;16.58;6.40;;;13.90;99.90;;;;;;5057027;28;20046;-69
2022/10/28 03:48:47;;;;;;;15.98;5.93;;;13.90;99.90;;;;;;5054320;28;20052;-69
2022/10/28 03:51:13;;;;;;;14.88;5.47;;;13.90;99.90;;;;;;5053216;28;20063;-71
2022/10/28 03:53:38;;;;;;;11.70;6.03;;;13.90;99.90;;;;;;5036454;28;20087;-71
2022/10/28 03:56:04;;;;;;;17.63;5.95;;;13.90;99.90;;;;;;5055100;28;20088;-70
2022/10/28 03:58:30;;;;;;;26.10;7.78;;;13.90;99.90;;;;;;5044053;28;20048;-70
2022/10/28 04:00:56;;;;;;;17.60;7.32;;;13.90;99.90;;;;;;5056037;28;20040;-68
2022/10/28 04:03:22;;;;;;;20.27;6.18;;;13.90;99.90;;;;;;5055198;28;20099;-69
2022/10/28 04:05:48;;;;;;;15.00;5.55;;;13.90;99.90;;;;;;5071434;28;20057;-68
2022/10/28 04:08:15;;;;;;;15.45;7.50;;;13.90;99.90;;;;;;5055312;28;20048;-68
2022/10/28 04:10:42;;;;;;;12.45;6.30;;;13.80;99.90;;;;;;5035766;28;20364;-72
2022/10/28 04:13:08;;;;;;;19.85;6.43;;;13.80;99.90;;;;;;5035822;28;20099;-70
2022/10/28 04:15:34;;;;;;;;;;;13.80;99.90;;;;;;5035521;28;20049;-71
2022/10/28 04:18:00;;;;;;;13.07;5.63;;;13.80;99.90;;;;;;5035605;28;19955;-70
2022/10/28 04:20:27;;;;;;;16.40;5.80;;;13.80;99.90;;;;;;5036049;28;20143;-68
2022/10/28 04:22:53;;;;;;;16.70;6.60;;;13.70;99.90;;;;;;5069449;28;20100;-67
2022/10/28 04:25:20;;;;;;;16.33;6.63;;;13.70;99.90;;;;;;5051843;28;20056;-69
2022/10/28 04:27:46;;;;;;;14.82;5.22;;;13.70;99.90;;;;;;5047964;28;20048;-73
2022/10/28 04:30:13;;;;;;;10.07;5.22;;;13.70;99.90;;;;;;5036232;28;20045;-69
2022/10/28 04:32:39;;;;;;;15.10;6.45;;;13.60;99.90;;;;;;5035962;28;20384;-69
2022/10/28 04:35:05;;;;;;;15.15;6.22;;;13.60;99.90;;;;;;5049232;28;20049;-69
2022/10/28 04:37:31;;;;;;;14.35;5.80;;;13.60;99.90;;;;;;5051837;28;20041;-70
2022/10/28 04:39:57;;;;;;;13.88;6.18;;;13.60;99.90;;;;;;5039129;28;20067;-71
2022/10/28 04:42:23;;;;;;;19.20;6.32;;;13.50;99.90;;;;;;5032060;28;20471;-69
2022/10/28 04:44:48;;;;;;;;;;;13.50;99.90;;;;;;5034510;28;20133;-70
2022/10/28 04:47:15;;;;;;;13.68;5.60;;;13.50;99.90;;;;;;5033941;28;20059;-69
2022/10/28 04:49:40;;;;;;;21.10;6.25;;;13.50;99.90;;;;;;5043689;28;20056;-70
2022/10/28 04:52:06;;;;;;;16.08;6.55;;;13.50;99.90;;;;;;5050899;28;20199;-72
2022/10/28 04:54:32;;;;;;;12.38;4.70;;;13.40;99.90;;;;;;5049805;28;20561;-69
2022/10/28 04:56:57;;;;;;;16.55;5.88;;;13.40;99.90;;;;;;5034229;28;20057;-69
2022/10/28 04:59:23;;;;;;;11.13;5.47;;;13.40;99.90;;;;;;5032792;28;20053;-69
2022/10/28 05:01:49;;;;;;;14.35;6.60;;;13.40;99.90;;;;;;5044653;28;20053;-73
2022/10/28 05:04:14;;;;;;;20.58;6.25;;;13.40;99.90;;;;;;5044487;28;20045;-69
2022/10/28 05:06:40;;;;;;;15.60;6.82;;;13.40;99.90;;;;;;5046527;28;20487;-70
2022/10/28 05:09:05;;;;;;;10.45;5.57;;;13.40;99.90;;;;;;5049737;28;20467;-69
2022/10/28 05:11:31;;;;;;;19.88;7.22;;;13.40;99.90;;;;;;5063567;28;20056;-69
2022/10/28 05:13:57;;;;;;;16.65;6.53;;;13.40;99.90;;;;;;5047604;28;20041;-69
2022/10/28 05:16:23;;;;;;;17.88;6.45;;;13.40;99.90;;;;;;5032288;28;20049;-68
2022/10/28 05:18:48;;;;;;;15.88;6.65;;;13.40;99.90;;;;;;5050019;28;20049;-73
2022/10/28 05:21:14;;;;;;;12.38;5.60;;;13.50;99.90;;;;;;5051565;28;20441;-69
2022/10/28 05:23:40;;;;;;;13.68;6.72;;;13.50;99.90;;;;;;5050587;28;20056;-69
2022/10/28 05:26:05;;;;;;;19.77;7.13;;;13.50;99.90;;;;;;5047411;28;20096;-69
2022/10/28 05:28:31;;;;;;;12.73;5.70;;;13.40;99.90;;;;;;5048241;28;20052;-69
2022/10/28 05:30:57;;;;;;;15.75;6.05;;;13.50;99.90;;;;;;5050263;28;20037;-69
2022/10/28 05:33:23;;;;;;;14.73;5.78;;;13.50;99.90;;;;;;5051896;28;20183;-69
2022/10/28 05:35:48;;;;;;;16.13;6.10;;;13.50;99.90;;;;;;5051576;28;20091;-73
2022/10/28 05:38:14;;;;;;;15.65;6.13;;;13.50;99.90;;;;;;5039959;28;20099;-71
2022/10/28 05:40:40;;;;;;;16.70;6.50;;;13.50;99.90;;;;;;5048592;28;20119;-69
2022/10/28 05:43:08;;;;;;;23.45;6.82;;;13.50;99.90;;;;;;5033524;28;20047;-71
2022/10/28 05:45:34;;;;;;;17.05;6.15;;;13.50;99.90;;;;;;5084131;28;20049;-69
2022/10/28 05:47:59;;;;;;;13.55;5.95;;;13.50;99.90;;;;;;5050882;28;20098;-69
2022/10/28 05:50:25;;;;;;;14.68;7.38;;;13.40;99.90;;;;;;5047667;28;20106;-69
2022/10/28 05:52:56;;;;;;;20.23;6.43;;;13.50;99.90;;;;;;5033840;28;20084;-73
2022/10/28 05:55:26;;;;;;;14.70;5.80;;;13.50;99.90;;;;;;5030681;28;20095;-70
2022/10/28 05:57:52;;;;;;;11.10;5.82;;;13.50;99.90;;;;;;5031097;28;20124;-73
2022/10/28 06:00:20;;;;;;;;;;;13.50;99.90;;;;;;5031970;28;20052;-70
2022/10/28 06:02:45;;;;;;;17.33;5.93;;;13.50;99.90;;;;;;5031402;28;19978;-72
2022/10/28 06:05:12;;;;;;;14.30;5.63;;;13.40;99.90;;;;;;5030741;28;20073;-69
2022/10/28 06:07:38;;;;;;;;;;;13.40;99.90;;;;;;5049684;28;20059;-70
2022/10/28 06:10:05;;;;;;;13.30;6.18;;;13.40;99.90;;;;;;5036530;28;20417;-69
2022/10/28 06:12:31;;;;;;;14.68;5.78;;;13.40;99.90;;;;;;5042148;28;20043;-69
2022/10/28 06:14:57;;;;;;;19.23;5.57;;;13.40;99.90;;;;;;5049404;28;20048;-71
2022/10/28 06:17:22;;;;;;;17.45;6.03;;;13.40;99.90;;;;;;5051251;28;20080;-70
2022/10/28 06:19:48;;;;;;;11.80;4.80;;;13.40;99.90;;;;;;5038421;28;20557;-72
2022/10/28 06:22:14;;;;;;;16.90;6.03;;;13.40;99.90;;;;;;5031790;28;20064;-68
2022/10/28 06:24:39;;;;;;;11.48;4.63;;;13.40;99.90;;;;;;5049570;28;20052;-67
2022/10/28 06:27:06;;;;;;;18.35;7.07;;;13.40;99.90;;;;;;5041531;28;20108;-69
2022/10/28 06:29:32;;;;;;;13.07;5.70;;;13.50;99.90;;;;;;5031262;28;20445;-70
2022/10/28 06:31:58;;;;;;;13.88;5.20;;;13.50;99.90;;;;;;5032659;28;20079;-69
2022/10/28 06:34:23;;;;;;;18.77;5.28;;;13.60;99.90;;;;;;5038775;28;20501;-70
2022/10/28 06:36:50;;;;;;;14.25;6.47;;;13.60;99.90;;;;;;5050946;28;20099;-70
2022/10/28 06:39:15;;;;;;;21.20;5.88;;;13.80;99.90;;;;;;5041880;28;20600;-76
2022/10/28 06:41:41;;;;;;;21.85;5.45;;;13.90;99.90;;;;;;5033075;28;20044;-71
2022/10/28 06:44:07;;;;;;;14.07;5.85;;;13.90;99.90;;;;;;5050152;28;20095;-71
2022/10/28 06:46:33;;;;;;;11.88;5.28;;;13.90;99.90;;;;;;5050145;28;20463;-70
2022/10/28 06:49:01;;;;;;;16.83;4.80;;;13.90;99.90;;;;;;5049871;28;20083;-71
2022/10/28 06:51:28;;;;;;;15.20;5.28;;;13.90;99.90;;;;;;5050247;28;20087;-71
2022/10/28 06:53:53;;;;;;;;;;;13.90;99.90;;;;;;5049013;28;20521;-77
2022/10/28 06:56:19;;;;;;;11.45;5.22;;;13.90;99.90;;;;;;5037003;28;19956;-70
2022/10/28 06:58:53;;;;;;;12.85;4.90;;;13.90;99.90;;;;;;5046551;28;20075;-69
2022/10/28 07:01:19;;;;;;;19.45;5.93;;;14.00;99.90;;;;;;5035592;28;20049;-70
2022/10/28 07:03:46;;;;;;;12.52;5.00;;;14.00;99.90;;;;;;5041279;28;20406;-70
2022/10/28 07:06:12;;;;;;;17.00;5.25;;;14.10;99.90;;;;;;5071393;28;20479;-73
2022/10/28 07:08:38;;;;;;;16.83;5.05;;;14.20;99.90;;;;;;5044979;28;20049;-71
2022/10/28 07:11:04;;;;;;;16.17;5.45;;;14.30;99.90;;;;;;5046628;28;20056;-75
2022/10/28 07:13:29;;;;;;;12.80;5.25;;;14.40;99.90;;;;;;5029729;28;20041;-70
2022/10/28 07:15:58;;;;;;;15.18;4.93;;;14.50;99.90;;;;;;5069706;28;20053;-74
2022/10/28 07:18:26;;;;;;;11.23;4.55;;;14.60;99.90;;;;;;5042622;28;20449;-72
2022/10/28 07:20:52;;;;;;;11.23;3.75;;;14.90;99.90;;;;;;5032050;28;20556;-70
2022/10/28 07:23:18;;;;;;;12.98;4.18;;;15.10;99.90;;;;;;5039540;28;20050;-70
2022/10/28 07:25:54;;;;;;;14.73;4.97;;;15.30;99.90;;;;;;5028926;28;20064;-72
2022/10/28 07:28:21;;;;;;;14.18;4.70;;;15.50;99.90;;;;;;5042965;28;20040;-71
2022/10/28 07:30:47;;;;;;;11.32;4.43;;;15.60;99.90;;;;;;5030020;28;20052;-73
2022/10/28 07:33:13;;;;;;;15.63;4.68;;;15.70;99.90;;;;;;5042863;28;20056;-70
2022/10/28 07:35:38;;;;;;;9.57;4.40;;;15.80;99.90;;;;;;5037735;28;20087;-70
2022/10/28 07:38:04;;;;;;;;;;;15.80;99.90;;;;;;5036667;28;20498;-70
2022/10/28 07:40:31;;;;;;;12.07;4.47;;;15.90;99.90;;;;;;5038194;28;20369;-71
2022/10/28 07:42:57;;;;;;;15.40;4.57;;;15.90;99.90;;;;;;5028330;28;20394;-73
2022/10/28 07:45:23;;;;;;;12.13;4.82;;;16.00;99.90;;;;;;5029480;28;20045;-70
2022/10/28 07:47:49;;;;;;;15.82;4.47;;;16.10;99.90;;;;;;5028570;28;20513;-70
2022/10/28 07:50:15;;;;;;;;;;;16.10;99.90;;;;;;5029404;28;20372;-71
2022/10/28 07:52:41;;;;;;;11.05;4.60;;;16.20;99.90;;;;;;5028669;28;19967;-70
2022/10/28 07:55:07;;;;;;;;;;;16.30;99.90;;;;;;5030616;28;20053;-71
2022/10/28 07:57:36;;;;;;;10.73;4.75;;;16.30;99.90;;;;;;5037561;28;20011;-70
2022/10/28 08:00:04;;;;;;;12.40;4.05;;;16.40;99.90;;;;;;5035186;28;20648;-76
2022/10/28 08:02:29;;;;;;;10.57;4.07;;;16.50;99.90;;;;;;5039283;28;20514;-71
2022/10/28 08:04:55;;;;;;;11.02;4.20;;;16.60;99.90;;;;;;5032666;28;20049;-73
2022/10/28 08:07:21;;;;;;;;;;;16.60;99.90;;;;;;5028761;28;20088;-71
2022/10/28 08:09:47;;;;;;;15.32;4.72;;;16.70;99.90;;;;;;5029650;28;19983;-72
2022/10/28 08:12:13;;;;;;;;;;;16.70;99.90;;;;;;5032035;28;20491;-71
2022/10/28 08:14:39;;;;;;;14.82;3.83;;;16.80;99.90;;;;;;5036173;28;20393;-71
2022/10/28 08:17:05;;;;;;;;;;;16.90;99.90;;;;;;5049351;28;20041;-77
2022/10/28 08:19:30;;;;;;;11.18;4.10;;;16.90;99.90;;;;;;5048344;28;20006;-73
2022/10/28 08:21:56;;;;;;;;;;;16.90;99.90;;;;;;5051829;28;20049;-71
2022/10/28 08:24:22;;;;;;;12.05;4.05;;;17.00;99.90;;;;;;5048712;28;19960;-72
2022/10/28 08:26:48;;;;;;;16.33;3.70;;;17.00;99.90;;;;;;5042652;28;20132;-73
2022/10/28 08:29:14;;;;;;;11.13;3.63;;;17.10;99.90;;;;;;5047017;28;20140;-71
2022/10/28 08:31:40;;;;;;;15.60;4.85;;;17.20;99.90;;;;;;5048511;28;20044;-74
2022/10/28 08:34:06;;;;;;;16.08;3.75;;;17.30;99.90;;;;;;5046719;28;20814;-76
2022/10/28 08:36:32;;;;;;;;;;;17.40;99.90;;;;;;5044948;28;20487;-72
2022/10/28 08:39:00;;;;;;;16.35;3.90;;;17.40;99.90;;;;;;5043004;28;21162;-72
2022/10/28 08:42:13;;;;;;;12.00;4.57;;;17.50;99.90;;;;;;5045794;28;20604;-72
2022/10/28 08:45:04;;;;;;;16.45;4.22;;;17.60;99.90;;;;;;5044025;28;20084;-74
2022/10/28 08:47:49;;;;;;;12.05;3.85;;;17.60;99.90;;;;;;5048305;28;20051;-71
2022/10/28 08:50:20;;;;;;;9.43;4.05;;;17.70;99.90;;;;;;5048691;28;20076;-75
2022/10/28 08:52:53;;;;;;;12.68;3.83;;;17.70;99.90;;;;;;5079459;28;20044;-71
2022/10/28 08:55:30;;;;;;;13.57;4.78;;;17.80;99.90;;;;;;5046798;28;20056;-72
2022/10/28 08:58:20;;;;;;;12.52;4.00;;;17.90;99.90;;;;;;5051117;28;20052;-71
2022/10/28 09:00:53;;;;;;;15.95;5.45;;;18.00;99.90;;;;;;5042900;28;20061;-74
2022/10/28 09:03:25;;;;;;;10.40;3.95;;;18.10;99.90;;;;;;5049301;28;20048;-78
2022/10/28 09:06:02;;;;;;;11.30;3.63;;;18.20;99.90;;;;;;5051533;28;20119;-77
2022/10/28 09:08:30;;;;;;;;;;;18.30;99.90;;;;;;5042148;28;20041;-72
2022/10/28 09:11:30;;;;;;;16.20;3.78;;;18.40;99.90;;;;;;5039961;28;19928;-72
2022/10/28 09:14:15;;;;;;;18.38;4.65;;;18.50;99.90;;;;;;5032082;28;20065;-71
2022/10/28 09:16:53;;;;;;;10.75;3.47;;;18.60;99.90;;;;;;5032353;28;20045;-72
2022/10/28 09:19:22;;;;;;;14.70;4.30;;;18.70;99.90;;;;;;5030520;28;20087;-72
2022/10/28 09:22:26;;;;;;;12.43;3.55;;;18.80;99.90;;;;;;5032104;28;20080;-72
2022/10/28 09:25:16;;;;;;;17.02;3.78;;;18.80;99.90;;;;;;5029934;28;20049;-72
2022/10/28 09:28:00;;;;;;;14.25;3.75;;;18.90;99.90;;;;;;5031862;28;20053;-73
2022/10/28 09:30:35;;;;;;;20.67;3.67;;;18.80;99.90;;;;;;5035214;28;20099;-73
2022/10/28 09:33:27;;;;;;;11.10;4.15;;;18.90;99.90;;;;;;5032788;28;20487;-71
2022/10/28 09:35:54;;;;;;;16.70;4.72;;;18.90;99.90;;;;;;5031826;28;20188;-72
2022/10/28 09:38:30;;;;;;;12.50;3.45;;;18.90;99.90;;;;;;5032452;28;20513;-71
2022/10/28 09:41:05;;;;;;;11.73;4.15;;;18.90;99.90;;;;;;5043859;28;20120;-72
2022/10/28 09:43:41;;;;;;;14.15;3.53;;;18.90;99.90;;;;;;5046694;28;20079;-72
2022/10/28 09:46:12;;;;;;;9.55;3.63;;;18.90;99.90;;;;;;5051829;28;20063;-78
2022/10/28 09:48:46;;;;;;;11.73;3.53;;;18.90;99.90;;;;;;5051704;28;20049;-73
2022/10/28 09:51:42;;;;;;;12.75;4.00;;;18.80;99.90;;;;;;5037530;28;20509;-77
2022/10/28 09:54:09;;;;;;;14.05;4.13;;;18.80;99.90;;;;;;5030639;28;20056;-77
2022/10/28 09:56:36;;;;;;;10.52;3.63;;;18.90;99.90;;;;;;5062665;28;20057;-72
2022/10/28 09:59:02;;;;;;;;;;;18.90;99.90;;;;;;5048693;28;20045;-72
2022/10/28 10:01:32;;;;;;;13.23;3.60;;;18.90;99.90;;;;;;5048906;28;19921;-73
2022/10/28 10:03:58;;;;;;;11.45;3.88;;;18.90;99.90;;;;;;5051224;28;20060;-72
2022/10/28 10:06:26;;;;;;;;;;;18.90;99.90;;;;;;5036521;28;20053;-74
2022/10/28 10:08:54;;;;;;;9.95;3.70;;;18.90;99.90;;;;;;5029452;28;19947;-72
2022/10/28 10:11:28;;;;;;;12.32;3.83;;;18.90;99.90;;;;;;5028900;28;20045;-74
2022/10/28 10:13:57;;;;;;;13.23;4.00;;;18.90;99.90;;;;;;5031318;28;20384;-71
2022/10/28 10:16:31;;;;;;;15.15;4.30;;;18.90;99.90;;;;;;5030824;28;20054;-72
2022/10/28 10:19:00;;;;;;;13.93;4.22;;;19.00;99.90;;;;;;5035613;28;20041;-74
2022/10/28 10:21:45;;;;;;;7.82;3.17;;;19.00;99.90;;;;;;5050381;28;20057;-72
2022/10/28 10:24:31;;;;;;;14.40;4.18;;;19.00;99.90;;;;;;5049844;28;20057;-77
2022/10/28 10:27:16;;;;;;;12.95;3.33;;;19.10;99.90;;;;;;5037569;28;20081;-75
2022/10/28 10:29:47;;;;;;;12.65;3.70;;;19.10;99.90;;;;;;5051220;28;20079;-72
2022/10/28 10:32:25;;;;;;;9.43;3.40;;;19.20;99.90;;;;;;5047188;28;20407;-77
2022/10/28 10:35:14;;;;;;;14.52;4.72;;;19.20;99.90;;;;;;5043221;28;20110;-72
2022/10/28 10:37:45;;;;;;;16.85;4.60;;;19.30;99.90;;;;;;5048843;28;20048;-72
2022/10/28 10:40:22;;;;;;;14.05;3.75;;;19.50;99.90;;;;;;5048383;28;20483;-77
2022/10/28 10:42:48;;;;;;;14.90;3.83;;;19.60;99.90;;;;;;5050615;28;20059;-72
2022/10/28 10:45:20;;;;;;;;;;;19.80;99.90;;;;;;5050903;28;20135;-78
2022/10/28 10:47:45;;;;;;;13.43;3.60;;;19.90;99.90;;;;;;5049265;28;19929;-72
2022/10/28 10:50:22;;;;;;;;;;;20.00;99.90;;;;;;5042126;28;20048;-78
2022/10/28 10:52:53;;;;;;;15.43;4.75;;;20.00;99.90;;;;;;5045584;28;19968;-72
2022/10/28 10:55:33;;;;;;;14.77;4.03;;;20.00;99.90;;;;;;5049027;28;20558;-71
2022/10/28 10:58:00;;;;;;;10.73;3.72;;;20.00;99.90;;;;;;5050502;28;20084;-72
2022/10/28 11:00:31;;;;;;;9.57;3.25;;;20.00;99.90;;;;;;5049866;28;20051;-71
2022/10/28 11:02:58;;;;;;;10.15;3.58;;;20.00;99.90;;;;;;5050340;28;20045;-73
2022/10/28 11:05:24;;;;;;;11.90;3.28;;;20.10;99.90;;;;;;5049980;28;20118;-72
2022/10/28 11:07:50;;;;;;;;;;;20.10;99.90;;;;;;5076060;28;20061;-71
2022/10/28 11:10:28;;;;;;;13.10;4.10;;;20.20;99.90;;;;;;5031609;28;19924;-78
2022/10/28 11:13:01;;;;;;;15.18;3.78;;;20.20;99.90;;;;;;5029384;28;20073;-74
2022/10/28 11:15:29;;;;;;;11.77;3.60;;;20.30;99.90;;;;;;5030075;28;20052;-75
2022/10/28 11:17:59;;;;;;;13.02;3.53;;;20.30;99.90;;;;;;5029958;28;20501;-72
2022/10/28 11:20:48;;;;;;;13.80;3.50;;;20.30;99.90;;;;;;5045427;28;20147;-73
2022/10/28 11:23:32;;;;;;;13.13;4.32;;;20.40;99.90;;;;;;5049103;28;20059;-77
2022/10/28 11:26:06;;;;;;;11.52;3.33;;;20.50;99.90;;;;;;5049076;28;20406;-72
2022/10/28 11:28:34;;;;;;;11.77;3.13;;;20.70;99.90;;;;;;5049844;28;20045;-71
2022/10/28 11:31:16;;;;;;;11.90;3.75;;;21.00;99.90;;;;;;5050226;28;20045;-71
2022/10/28 11:34:19;;;;;;;7.75;3.25;;;21.30;99.90;;;;;;5047692;28;20049;-71
2022/10/28 11:37:07;;;;;;;11.82;3.92;;;21.70;99.90;;;;;;5046657;28;20114;-72
2022/10/28 11:39:54;;;;;;;15.38;3.95;;;22.00;99.90;;;;;;5048531;28;20041;-71
2022/10/28 11:42:44;;;;;;;9.65;2.95;;;22.20;99.90;;;;;;5048756;28;20075;-75
2022/10/28 11:45:39;;;;;;;11.85;3.20;;;22.30;99.90;;;;;;5069106;28;20113;-73
2022/10/28 11:48:33;;;;;;;11.00;4.15;;;22.20;99.90;;;;;;4980823;28;20066;-74
2022/10/28 11:51:28;;;;;;;8.27;2.97;;;22.00;99.90;;;;;;5034142;28;20064;-76
2022/10/28 11:54:04;;;;;;;11.55;3.17;;;21.90;99.90;;;;;;5033275;28;20124;-71
2022/10/28 11:56:44;;;;;;;12.53;3.80;;;22.00;99.90;;;;;;5031928;28;20057;-72
2022/10/28 11:59:34;;;;;;;11.57;3.47;;;22.20;99.90;;;;;;5033591;28;20041;-71
2022/10/28 12:02:21;;;;;;;10.38;2.90;;;22.30;99.90;;;;;;5042222;28;20127;-71
2022/10/28 12:04:59;;;;;;;18.02;3.50;;;22.50;99.90;;;;;;5045452;28;20044;-71
2022/10/28 12:07:33;;;;;;;11.23;3.03;;;22.50;99.90;;;;;;5052586;28;20056;-72
2022/10/28 12:10:20;;;;;;;11.73;2.83;;;22.60;99.90;;;;;;5052704;28;20122;-72
2022/10/28 12:12:54;;;;;;;;;;;22.60;99.90;;;;;;5054052;28;20135;-71
2022/10/28 12:15:32;;;;;;;9.07;2.97;;;22.50;99.90;;;;;;5034277;28;19925;-76
2022/10/28 12:18:26;;;;;;;11.48;3.30;;;22.50;99.90;;;;;;5051736;28;20052;-72
2022/10/28 12:21:16;;;;;;;11.80;3.40;;;22.50;99.90;;;;;;5038172;28;20061;-71
2022/10/28 12:23:43;;;;;;;10.70;3.35;;;22.30;99.90;;;;;;5064674;28;20096;-73
2022/10/28 12:26:14;;;;;;;10.20;3.50;;;22.20;99.90;;;;;;5052300;28;20052;-72
2022/10/28 12:28:47;;;;;;;12.48;3.15;;;22.10;99.90;;;;;;5052805;28;20040;-72
2022/10/28 12:31:27;;;;;;;12.75;3.25;;;22.10;99.90;;;;;;5068876;28;20407;-72
2022/10/28 12:33:59;;;;;;;16.55;3.55;;;22.10;99.90;;;;;;5037880;28;20049;-74
2022/10/28 12:36:41;;;;;;;12.93;3.50;;;22.10;99.90;;;;;;5049862;28;20061;-76
2022/10/28 12:39:18;;;;;;;10.15;3.05;;;22.10;99.90;;;;;;5051370;28;20045;-77
2022/10/28 12:41:51;;;;;;;;;;;22.10;99.90;;;;;;5051703;28;20525;-73
2022/10/28 12:44:20;;;;;;;10.15;2.92;;;22.00;99.90;;;;;;5052517;28;19925;-73
2022/10/28 12:47:13;;;;;;;10.57;3.20;;;22.00;99.90;;;;;;5041650;28;20053;-74
2022/10/28 12:49:45;;;;;;;12.40;3.50;;;22.00;99.90;;;;;;5031046;28;20136;-74
2022/10/28 12:52:29;;;;;;;14.25;3.33;;;21.90;99.90;;;;;;5042814;28;20398;-74
2022/10/28 12:55:12;;;;;;;12.20;3.28;;;21.90;99.90;;;;;;5049962;28;20072;-76
2022/10/28 12:57:42;;;;;;;16.55;3.58;;;21.80;99.90;;;;;;5049849;28;20128;-73
2022/10/28 13:00:17;;;;;;;9.85;3.05;;;21.80;99.90;;;;;;5031902;28;20402;-74
2022/10/28 13:02:53;;;;;;;9.65;2.95;;;21.70;99.90;;;;;;5051995;28;20131;-75
2022/10/28 13:05:51;;;;;;;14.03;3.73;;;21.70;99.90;;;;;;5051037;28;20049;-79
2022/10/28 13:08:35;;;;;;;14.77;3.47;;;21.70;99.90;;;;;;5041859;28;20053;-75